createdAt,value
2018-08-10T00:02:20.834Z,22.40
2018-08-10T00:04:49.246Z,22.30
2018-08-10T00:07:17.697Z,22.40
2018-08-10T00:09:46.051Z,22.50
2018-08-10T00:12:14.504Z,22.70
2018-08-10T00:14:42.961Z,22.80
2018-08-10T00:17:11.762Z,22.90
2018-08-10T00:19:40.358Z,22.80
2018-08-10T00:22:08.518Z,22.90
2018-08-10T00:24:36.988Z,22.80
2018-08-10T00:27:05.738Z,22.70
2018-08-10T00:29:34.299Z,22.60
2018-08-10T00:32:03.076Z,22.50
2018-08-10T00:34:32.041Z,22.50
2018-08-10T00:37:00.929Z,22.60
2018-08-10T00:39:29.383Z,22.40
2018-08-10T00:41:58.072Z,22.20
2018-08-10T00:44:26.251Z,22.00
2018-08-10T00:46:54.583Z,22.00
2018-08-10T00:49:23.502Z,22.00
2018-08-10T00:51:52.162Z,22.10
2018-08-10T00:54:20.562Z,22.20
2018-08-10T00:56:49.580Z,22.40
2018-08-10T00:59:18.799Z,22.60
2018-08-10T01:01:47.588Z,22.70
2018-08-10T01:04:16.218Z,22.50
2018-08-10T01:06:44.903Z,22.40
2018-08-10T01:09:13.807Z,22.40
2018-08-10T01:11:42.331Z,22.60
2018-08-10T01:14:10.728Z,22.50
2018-08-10T01:16:39.135Z,22.30
2018-08-10T01:19:07.787Z,22.20
2018-08-10T01:21:36.157Z,22.30
2018-08-10T01:24:04.450Z,22.50
2018-08-10T01:26:33.269Z,22.50
2018-08-10T01:29:01.768Z,22.50
2018-08-10T01:31:30.485Z,22.30
2018-08-10T01:33:59.452Z,22.30
2018-08-10T01:36:28.329Z,22.40
2018-08-10T01:38:56.863Z,22.50
2018-08-10T01:41:26.547Z,22.60
2018-08-10T01:43:55.249Z,22.30
2018-08-10T01:46:23.706Z,22.10
2018-08-10T01:48:52.543Z,22.20
2018-08-10T01:51:21.808Z,22.40
2018-08-10T01:53:49.996Z,22.50
2018-08-10T01:56:18.518Z,22.40
2018-08-10T01:58:47.377Z,22.40
2018-08-10T02:01:16.085Z,22.20
2018-08-10T02:03:44.804Z,22.20
2018-08-10T02:06:13.120Z,22.20
2018-08-10T02:08:41.656Z,22.20
2018-08-10T02:11:10.583Z,22.20
2018-08-10T02:13:39.098Z,22.10
2018-08-10T02:16:08.308Z,22.10
2018-08-10T02:18:37.038Z,22.10
2018-08-10T02:21:05.200Z,22.10
2018-08-10T02:23:33.644Z,22.10
2018-08-10T02:26:02.712Z,22.20
2018-08-10T02:28:31.233Z,22.40
2018-08-10T02:30:59.622Z,22.30
2018-08-10T02:33:28.065Z,22.30
2018-08-10T02:35:56.663Z,22.30
2018-08-10T02:38:24.914Z,22.30
2018-08-10T02:40:53.587Z,22.30
2018-08-10T02:43:21.876Z,22.10
2018-08-10T02:45:50.721Z,22.20
2018-08-10T02:48:19.820Z,22.20
2018-08-10T02:50:48.370Z,22.20
2018-08-10T02:53:17.880Z,22.20
2018-08-10T02:55:46.174Z,22.20
2018-08-10T02:58:14.798Z,22.30
2018-08-10T03:00:42.995Z,22.20
2018-08-10T03:03:11.595Z,22.20
2018-08-10T03:05:40.499Z,22.20
2018-08-10T03:08:10.225Z,22.10
2018-08-10T03:10:39.354Z,22.10
2018-08-10T03:13:07.651Z,21.80
2018-08-10T03:15:36.105Z,22.00
2018-08-10T03:18:05.259Z,21.90
2018-08-10T03:20:33.844Z,21.90
2018-08-10T03:23:02.126Z,21.70
2018-08-10T03:25:30.841Z,21.80
2018-08-10T03:27:59.125Z,21.70
2018-08-10T03:30:27.398Z,21.50
2018-08-10T03:32:56.223Z,21.60
2018-08-10T03:35:24.813Z,21.40
2018-08-10T03:37:53.709Z,21.50
2018-08-10T03:40:22.132Z,21.60
2018-08-10T03:42:50.842Z,21.60
2018-08-10T03:45:19.492Z,21.40
2018-08-10T03:47:47.812Z,21.30
2018-08-10T03:50:16.438Z,21.20
2018-08-10T03:52:45.281Z,21.00
2018-08-10T03:55:13.683Z,20.80
2018-08-10T03:57:42.530Z,20.70
2018-08-10T04:00:12.601Z,20.90
2018-08-10T04:02:41.592Z,20.60
2018-08-10T04:05:11.394Z,20.50
2018-08-10T04:07:39.668Z,20.30
2018-08-10T04:10:08.831Z,19.90
2018-08-10T04:12:37.677Z,19.80
2018-08-10T04:15:07.298Z,19.30
2018-08-10T04:17:36.014Z,19.30
2018-08-10T04:20:05.527Z,19.40
2018-08-10T04:22:33.885Z,19.60
2018-08-10T04:25:02.072Z,19.60
2018-08-10T04:27:30.510Z,19.80
2018-08-10T04:29:58.678Z,19.80
2018-08-10T04:32:27.177Z,19.80
2018-08-10T04:34:56.133Z,19.80
2018-08-10T04:37:24.520Z,19.60
2018-08-10T04:39:53.206Z,19.70
2018-08-10T04:42:21.796Z,19.60
2018-08-10T04:44:50.161Z,19.50
2018-08-10T04:47:19.371Z,19.00
2018-08-10T04:49:48.243Z,18.50
2018-08-10T04:52:16.779Z,18.40
2018-08-10T04:54:46.042Z,18.70
2018-08-10T04:57:14.750Z,18.80
2018-08-10T04:59:42.895Z,18.60
2018-08-10T05:02:11.079Z,18.90
2018-08-10T05:04:39.692Z,19.00
2018-08-10T05:07:08.061Z,19.10
2018-08-10T05:09:36.573Z,19.10
2018-08-10T05:12:05.267Z,19.30
2018-08-10T05:14:33.688Z,19.30
2018-08-10T05:17:02.228Z,19.30
2018-08-10T05:19:31.102Z,19.30
2018-08-10T05:21:59.767Z,19.30
2018-08-10T05:24:28.638Z,19.30
2018-08-10T05:26:57.230Z,19.30
2018-08-10T05:29:26.041Z,19.20
2018-08-10T05:31:55.171Z,18.80
2018-08-10T05:34:23.843Z,18.70
2018-08-10T05:36:52.515Z,18.90
2018-08-10T05:42:12.130Z,18.70
2018-08-10T05:50:58.587Z,18.60
2018-08-10T05:53:27.908Z,18.10
2018-08-10T05:56:00.330Z,18.00
2018-08-10T05:58:29.322Z,18.00
2018-08-10T06:00:57.675Z,18.00
2018-08-10T06:03:26.628Z,18.10
2018-08-10T06:05:54.923Z,18.00
2018-08-10T06:08:23.117Z,18.20
2018-08-10T06:10:51.314Z,18.10
2018-08-10T06:13:20.157Z,18.20
2018-08-10T06:15:48.576Z,18.50
2018-08-10T06:18:16.799Z,18.90
2018-08-10T06:20:46.029Z,19.00
2018-08-10T06:23:14.655Z,19.00
2018-08-10T06:25:43.083Z,19.00
2018-08-10T06:28:12.040Z,18.90
2018-08-10T06:30:42.997Z,19.00
2018-08-10T06:33:11.591Z,18.80
2018-08-10T06:35:44.573Z,19.00
2018-08-10T06:38:36.630Z,19.30
2018-08-10T06:41:11.179Z,19.40
2018-08-10T06:46:17.168Z,19.40
2018-08-10T06:48:45.883Z,18.90
2018-08-10T06:51:15.484Z,18.60
2018-08-10T06:53:44.362Z,18.70
2018-08-10T06:56:12.592Z,18.70
2018-08-10T06:58:43.278Z,18.50
2018-08-10T07:01:17.116Z,18.30
2018-08-10T07:03:45.750Z,18.40
2018-08-10T07:06:14.003Z,18.50
2018-08-10T07:08:43.660Z,18.10
2018-08-10T07:11:14.440Z,18.10
2018-08-10T07:13:43.108Z,18.00
2018-08-10T07:16:15.026Z,18.00
2018-08-10T07:18:43.589Z,18.00
2018-08-10T07:21:12.206Z,18.00
2018-08-10T07:23:42.791Z,18.00
2018-08-10T07:26:11.787Z,17.90
2018-08-10T07:28:40.806Z,18.00
2018-08-10T07:31:10.268Z,18.10
2018-08-10T07:33:38.799Z,18.20
2018-08-10T07:36:17.761Z,18.10
2018-08-10T07:38:50.432Z,18.20
2018-08-10T07:41:19.598Z,18.40
2018-08-10T07:43:49.487Z,18.40
2018-08-10T07:46:19.878Z,18.20
2018-08-10T07:48:51.638Z,17.90
2018-08-10T07:51:27.885Z,17.90
2018-08-10T07:54:12.663Z,18.00
2018-08-10T07:56:41.291Z,18.20
2018-08-10T07:59:12.845Z,18.00
2018-08-10T08:01:42.336Z,18.00
2018-08-10T08:04:14.142Z,18.20
2018-08-10T08:06:43.961Z,18.50
2018-08-10T08:09:13.468Z,18.60
2018-08-10T08:11:42.252Z,18.70
2018-08-10T08:14:10.997Z,18.80
2018-08-10T08:16:45.955Z,18.50
2018-08-10T08:19:14.658Z,18.40
2018-08-10T08:21:55.463Z,18.30
2018-08-10T08:24:24.562Z,18.10
2018-08-10T08:26:53.276Z,18.20
2018-08-10T08:29:21.866Z,18.60
2018-08-10T08:31:50.938Z,18.80
2018-08-10T08:34:20.041Z,18.50
2018-08-10T08:36:49.200Z,18.90
2018-08-10T08:39:24.269Z,19.20
2018-08-10T08:41:56.053Z,19.40
2018-08-10T08:44:32.011Z,19.50
2018-08-10T08:47:13.905Z,19.50
2018-08-10T08:52:52.288Z,19.20
2018-08-10T08:55:35.907Z,19.30
2018-08-10T08:58:10.983Z,19.40
2018-08-10T09:00:39.794Z,19.40
2018-08-10T09:03:12.586Z,19.40
2018-08-10T09:05:41.479Z,19.40
2018-08-10T09:08:24.475Z,19.40
2018-08-10T09:10:54.614Z,19.40
2018-08-10T09:13:23.426Z,19.40
2018-08-10T09:15:53.014Z,19.40
2018-08-10T09:18:38.936Z,19.30
2018-08-10T09:21:06.813Z,19.30
2018-08-10T09:23:36.323Z,19.00
2018-08-10T09:26:04.776Z,18.80
2018-08-10T09:28:33.124Z,18.70
2018-08-10T09:31:03.290Z,18.40
2018-08-10T09:33:31.898Z,18.10
2018-08-10T09:36:00.072Z,18.20
2018-08-10T09:38:29.159Z,18.10
2018-08-10T09:40:57.515Z,18.10
2018-08-10T09:43:41.094Z,18.00
2018-08-10T09:46:10.719Z,17.70
2018-08-10T09:48:39.185Z,17.70
2018-08-10T09:51:11.147Z,17.60
2018-08-10T09:53:40.338Z,17.50
2018-08-10T09:56:08.930Z,17.20
2018-08-10T09:58:37.541Z,17.30
2018-08-10T10:01:11.395Z,17.20
2018-08-10T10:03:40.993Z,16.90
2018-08-10T10:06:09.387Z,17.10
2018-08-10T10:08:38.668Z,16.80
2018-08-10T10:11:07.279Z,16.60
2018-08-10T10:13:36.355Z,16.60
2018-08-10T10:16:04.829Z,16.50
2018-08-10T10:18:38.411Z,16.50
2018-08-10T10:21:07.221Z,16.50
2018-08-10T10:23:35.654Z,16.20
2018-08-10T10:26:08.308Z,15.80
2018-08-10T10:28:49.750Z,15.80
2018-08-10T10:31:18.056Z,15.70
2018-08-10T10:33:46.514Z,15.70
2018-08-10T10:36:14.834Z,15.80
2018-08-10T10:38:45.057Z,15.70
2018-08-10T10:41:16.540Z,15.70
2018-08-10T10:43:44.977Z,15.70
2018-08-10T10:46:13.540Z,15.80
2018-08-10T10:48:45.599Z,15.90
2018-08-10T10:51:14.007Z,15.80
2018-08-10T10:53:44.296Z,15.80
2018-08-10T10:56:39.743Z,15.80
2018-08-10T10:59:08.332Z,15.90
2018-08-10T11:01:36.933Z,16.10
2018-08-10T11:04:08.191Z,16.10
2018-08-10T11:06:36.813Z,16.20
2018-08-10T11:09:23.245Z,16.20
2018-08-10T11:11:51.846Z,16.20
2018-08-10T11:14:20.246Z,16.30
2018-08-10T11:19:52.471Z,16.40
2018-08-10T11:22:22.569Z,16.50
2018-08-10T11:24:50.975Z,16.30
2018-08-10T11:27:19.365Z,16.20
2018-08-10T11:29:49.705Z,16.10
2018-08-10T11:32:18.052Z,16.10
2018-08-10T11:34:48.648Z,16.10
2018-08-10T11:37:20.842Z,16.20
2018-08-10T11:39:49.964Z,16.20
2018-08-10T11:42:18.625Z,16.00
2018-08-10T11:44:54.429Z,16.00
2018-08-10T11:47:23.017Z,16.00
2018-08-10T11:49:51.434Z,15.90
2018-08-10T11:52:20.980Z,16.00
2018-08-10T11:54:50.155Z,16.10
2018-08-10T11:57:19.454Z,16.00
2018-08-10T11:59:48.395Z,16.00
2018-08-10T12:02:16.797Z,16.00
2018-08-10T12:04:45.160Z,16.10
2018-08-10T12:07:14.023Z,16.00
2018-08-10T12:09:42.431Z,16.20
2018-08-10T12:12:14.052Z,16.40
2018-08-10T12:14:44.842Z,16.30
2018-08-10T12:17:13.652Z,16.20
2018-08-10T12:19:42.910Z,15.90
2018-08-10T12:22:11.793Z,15.70
2018-08-10T12:24:45.504Z,15.90
2018-08-10T12:27:14.523Z,16.20
2018-08-10T12:29:43.435Z,16.40
2018-08-10T12:32:12.111Z,16.40
2018-08-10T12:34:41.588Z,16.50
2018-08-10T12:37:10.226Z,16.60
2018-08-10T12:39:38.943Z,16.60
2018-08-10T12:42:07.378Z,16.80
2018-08-10T12:44:36.215Z,17.00
2018-08-10T12:47:07.219Z,17.20
2018-08-10T12:49:35.952Z,16.70
2018-08-10T12:52:05.623Z,17.20
2018-08-10T12:54:34.416Z,16.60
2018-08-10T12:57:05.149Z,16.30
2018-08-10T12:59:35.410Z,16.20
2018-08-10T13:02:16.666Z,16.70
2018-08-10T13:07:52.542Z,17.60
2018-08-10T13:10:21.436Z,17.40
2018-08-10T13:12:50.411Z,16.90
2018-08-10T13:15:22.439Z,17.10
2018-08-10T13:18:09.526Z,17.00
2018-08-10T13:20:39.220Z,17.40
2018-08-10T13:23:07.542Z,17.40
2018-08-10T13:25:35.985Z,17.30
2018-08-10T13:28:06.535Z,17.50
2018-08-10T13:30:35.559Z,17.50
2018-08-10T13:33:03.992Z,17.50
2018-08-10T13:35:35.255Z,17.30
2018-08-10T13:38:08.169Z,17.20
2018-08-10T13:40:36.891Z,17.30
2018-08-10T13:43:08.410Z,17.20
2018-08-10T13:46:01.412Z,17.50
2018-08-10T13:48:30.978Z,17.40
2018-08-10T13:50:59.241Z,17.00
2018-08-10T13:53:27.603Z,16.80
2018-08-10T13:55:57.119Z,16.50
2018-08-10T13:58:25.997Z,16.60
2018-08-10T14:00:55.339Z,17.10
2018-08-10T14:03:26.750Z,17.30
2018-08-10T14:05:55.490Z,16.80
2018-08-10T14:08:24.192Z,16.90
2018-08-10T14:11:01.170Z,17.00
2018-08-10T14:13:33.837Z,17.00
2018-08-10T14:19:27.474Z,16.90
2018-08-10T14:21:55.856Z,16.70
2018-08-10T14:24:28.165Z,16.90
2018-08-10T14:26:56.880Z,16.90
2018-08-10T14:29:27.390Z,17.30
2018-08-10T14:32:02.352Z,17.30
2018-08-10T14:34:30.726Z,17.60
2018-08-10T14:37:04.704Z,17.90
2018-08-10T14:39:33.935Z,17.70
2018-08-10T14:42:03.234Z,17.20
2018-08-10T14:44:31.669Z,16.50
2018-08-10T14:47:06.034Z,16.50
2018-08-10T14:49:34.830Z,16.60
2018-08-10T14:52:03.444Z,16.50
2018-08-10T14:54:32.272Z,16.50
2018-08-10T14:57:01.476Z,16.50
2018-08-10T15:00:00.493Z,16.40
2018-08-10T15:02:29.160Z,16.40
2018-08-10T15:04:59.266Z,16.30
2018-08-10T15:07:28.047Z,16.50
2018-08-10T15:09:57.462Z,16.80
2018-08-10T15:12:26.054Z,16.90
2018-08-10T15:14:55.520Z,17.20
2018-08-10T15:17:26.162Z,16.90
2018-08-10T15:19:55.324Z,16.40
2018-08-10T15:22:24.969Z,16.30
2018-08-10T15:24:57.710Z,16.70
2018-08-10T15:27:26.353Z,17.00
2018-08-10T15:29:54.545Z,16.80
2018-08-10T15:32:23.822Z,16.40
2018-08-10T15:34:54.779Z,16.50
2018-08-10T15:37:23.997Z,16.50
2018-08-10T15:39:54.131Z,16.60
2018-08-10T15:42:22.986Z,16.40
2018-08-10T15:44:51.712Z,16.30
2018-08-10T15:47:24.074Z,16.30
2018-08-10T15:49:53.066Z,16.20
2018-08-10T15:52:21.454Z,16.20
2018-08-10T15:54:51.762Z,16.30
2018-08-10T15:57:27.052Z,16.40
2018-08-10T15:59:58.082Z,16.50
2018-08-10T16:02:26.515Z,16.50
2018-08-10T16:04:56.901Z,16.40
2018-08-10T16:07:25.884Z,16.50
2018-08-10T16:09:56.151Z,16.60
2018-08-10T16:12:25.065Z,16.70
2018-08-10T16:14:54.600Z,16.80
2018-08-10T16:18:12.347Z,16.80
2018-08-10T16:20:43.118Z,17.00
2018-08-10T16:23:12.107Z,17.10
2018-08-10T16:25:40.620Z,17.10
2018-08-10T16:31:04.770Z,17.00
2018-08-10T16:33:39.373Z,17.00
2018-08-10T16:36:13.136Z,16.80
2018-08-10T16:38:41.562Z,16.90
2018-08-10T16:41:14.409Z,17.00
2018-08-10T16:46:29.406Z,16.80
2018-08-10T16:48:58.072Z,16.60
2018-08-10T16:51:28.439Z,16.70
2018-08-10T16:53:58.881Z,16.90
2018-08-10T16:56:27.493Z,17.10
2018-08-10T16:58:56.320Z,17.00
2018-08-10T17:01:26.787Z,17.10
2018-08-10T17:03:56.629Z,17.20
2018-08-10T17:06:25.270Z,17.10
2018-08-10T17:08:53.538Z,16.90
2018-08-10T17:11:22.385Z,16.90
2018-08-10T17:13:52.468Z,16.90
2018-08-10T17:16:21.246Z,16.60
2018-08-10T17:19:03.629Z,16.40
2018-08-10T17:21:32.401Z,16.40
2018-08-10T17:24:01.638Z,16.30
2018-08-10T17:26:35.782Z,16.60
2018-08-10T17:29:04.852Z,16.60
2018-08-10T17:31:33.350Z,16.70
2018-08-10T17:34:08.940Z,16.80
2018-08-10T17:36:55.614Z,16.80
2018-08-10T17:39:24.513Z,16.80
2018-08-10T17:41:56.250Z,16.80
2018-08-10T17:44:24.690Z,16.90
2018-08-10T17:47:00.034Z,16.80
2018-08-10T17:49:29.236Z,16.80
2018-08-10T17:51:57.431Z,16.70
2018-08-10T17:54:27.231Z,16.70
2018-08-10T17:57:22.187Z,16.60
2018-08-10T18:00:16.462Z,16.50
2018-08-10T18:02:55.690Z,16.40
2018-08-10T18:05:24.105Z,16.60
2018-08-10T18:07:54.032Z,16.60
2018-08-10T18:10:26.934Z,16.60
2018-08-10T18:13:00.327Z,16.40
2018-08-10T18:15:29.790Z,16.50
2018-08-10T18:17:58.298Z,16.50
2018-08-10T18:20:27.693Z,16.60
2018-08-10T18:23:00.663Z,16.70
2018-08-10T18:25:30.913Z,16.70
2018-08-10T18:28:00.055Z,16.70
2018-08-10T18:30:28.387Z,16.70
2018-08-10T18:32:57.155Z,16.60
2018-08-10T18:35:28.499Z,16.70
2018-08-10T18:37:58.027Z,16.60
2018-08-10T18:40:28.319Z,16.60
2018-08-10T18:42:57.013Z,16.50
2018-08-10T18:45:26.111Z,16.40
2018-08-10T18:47:58.757Z,16.40
2018-08-10T18:50:28.855Z,16.40
2018-08-10T18:52:57.249Z,16.10
2018-08-10T18:55:25.494Z,16.20
2018-08-10T18:57:55.573Z,16.30
2018-08-10T19:00:27.643Z,16.40
2018-08-10T19:02:56.530Z,16.40
2018-08-10T19:05:25.210Z,16.40
2018-08-10T19:07:54.331Z,16.20
2018-08-10T19:10:24.090Z,16.20
2018-08-10T19:12:56.053Z,16.20
2018-08-10T19:15:24.469Z,16.00
2018-08-10T19:17:53.142Z,15.60
2018-08-10T19:20:23.769Z,15.50
2018-08-10T19:22:52.685Z,15.60
2018-08-10T19:25:21.116Z,15.80
2018-08-10T19:27:49.878Z,15.90
2018-08-10T19:30:23.831Z,16.10
2018-08-10T19:32:52.915Z,16.20
2018-08-10T19:35:23.181Z,16.20
2018-08-10T19:37:51.487Z,16.10
2018-08-10T19:40:20.545Z,16.10
2018-08-10T19:42:53.184Z,15.80
2018-08-10T19:45:22.635Z,15.60
2018-08-10T19:47:53.531Z,15.50
2018-08-10T19:50:36.725Z,15.70
2018-08-10T19:53:06.478Z,15.80
2018-08-10T19:55:35.974Z,15.90
2018-08-10T19:58:08.245Z,15.90
2018-08-10T20:00:40.734Z,16.10
2018-08-10T20:03:09.187Z,16.10
2018-08-10T20:05:38.043Z,15.90
2018-08-10T20:08:08.060Z,15.80
2018-08-10T20:10:37.364Z,15.70
2018-08-10T20:13:05.778Z,15.70
2018-08-10T20:15:34.771Z,15.80
2018-08-10T20:18:03.356Z,15.80
2018-08-10T20:20:31.856Z,15.80
2018-08-10T20:23:00.683Z,15.90
2018-08-10T20:25:29.396Z,16.10
2018-08-10T20:27:57.722Z,16.10
2018-08-10T20:30:27.561Z,15.80
2018-08-10T20:32:55.789Z,15.60
2018-08-10T20:35:25.892Z,15.70
2018-08-10T20:37:55.100Z,15.90
2018-08-10T20:40:24.062Z,16.00
2018-08-10T20:42:52.575Z,16.00
2018-08-10T20:45:22.200Z,15.70
2018-08-10T20:47:50.430Z,15.50
2018-08-10T20:50:22.769Z,15.50
2018-08-10T20:52:51.582Z,15.80
2018-08-10T20:55:20.693Z,15.80
2018-08-10T20:57:49.198Z,15.90
2018-08-10T21:00:17.820Z,15.90
2018-08-10T21:02:46.522Z,15.90
2018-08-10T21:05:15.187Z,15.70
2018-08-10T21:07:44.708Z,15.60
2018-08-10T21:10:14.893Z,15.80
2018-08-10T21:12:44.295Z,15.70
2018-08-10T21:15:13.951Z,15.70
2018-08-10T21:17:56.554Z,15.90
2018-08-10T21:20:25.054Z,15.60
2018-08-10T21:22:53.273Z,15.80
2018-08-10T21:25:21.625Z,15.80
2018-08-10T21:28:06.640Z,16.00
2018-08-10T21:30:35.912Z,16.00
2018-08-10T21:33:04.580Z,16.00
2018-08-10T21:35:34.711Z,15.90
2018-08-10T21:38:03.032Z,15.70
2018-08-10T21:40:31.520Z,15.60
2018-08-10T21:43:00.117Z,15.40
2018-08-10T21:45:28.356Z,15.40
2018-08-10T21:47:56.840Z,15.40
2018-08-10T21:53:28.814Z,15.60
2018-08-10T21:55:57.366Z,15.80
2018-08-10T21:58:25.821Z,15.80
2018-08-10T22:01:01.077Z,15.90
2018-08-10T22:03:29.788Z,15.70
2018-08-10T22:05:58.252Z,15.80
2018-08-10T22:08:26.366Z,15.50
2018-08-10T22:10:55.011Z,15.30
2018-08-10T22:13:28.959Z,15.40
2018-08-10T22:16:02.946Z,15.30
2018-08-10T22:18:37.016Z,15.30
2018-08-10T22:21:05.279Z,15.20
2018-08-10T22:23:33.446Z,15.10
2018-08-10T22:26:06.436Z,15.30
2018-08-10T22:28:34.890Z,15.50
2018-08-10T22:31:03.800Z,15.30
2018-08-10T22:33:35.250Z,15.30
2018-08-10T22:36:03.870Z,15.20
2018-08-10T22:38:32.705Z,15.00
2018-08-10T22:41:01.708Z,15.10
2018-08-10T22:43:30.213Z,15.30
2018-08-10T22:45:59.345Z,15.40
2018-08-10T22:48:28.391Z,15.40
2018-08-10T22:50:56.739Z,15.30
2018-08-10T22:53:25.137Z,15.20
2018-08-10T22:55:53.986Z,15.30
2018-08-10T22:58:22.466Z,15.20
2018-08-10T23:00:55.032Z,15.30
2018-08-10T23:03:23.966Z,15.50
2018-08-10T23:05:52.291Z,15.70
2018-08-10T23:08:21.043Z,15.70
2018-08-10T23:10:50.277Z,15.60
2018-08-10T23:13:18.755Z,15.70
2018-08-10T23:15:47.215Z,15.70
2018-08-10T23:18:15.815Z,15.80
2018-08-10T23:20:44.427Z,15.80
2018-08-10T23:23:12.678Z,15.70
2018-08-10T23:25:41.538Z,15.70
2018-08-10T23:28:09.915Z,15.60
2018-08-10T23:30:38.850Z,15.60
2018-08-10T23:33:07.754Z,15.60
2018-08-10T23:35:36.282Z,15.60
2018-08-10T23:38:04.755Z,15.60
2018-08-10T23:40:33.318Z,15.70
2018-08-10T23:43:01.499Z,15.60
2018-08-10T23:45:29.707Z,15.70
2018-08-10T23:47:59.276Z,15.60
2018-08-10T23:50:27.447Z,15.50
2018-08-10T23:52:55.619Z,15.50
2018-08-10T23:55:24.551Z,15.40
2018-08-10T23:57:52.694Z,15.40
